createdAt,value
2022-08-08T04:16:38.934Z,100369.53
2022-08-08T04:19:45.497Z,100369.53
2022-08-08T04:22:51.439Z,100381.38
2022-08-08T04:25:54.186Z,100385.59
2022-08-08T04:28:57.541Z,100389.63
2022-08-08T04:32:01.414Z,100388.91
2022-08-08T04:35:04.610Z,100389.16
2022-08-08T04:38:09.610Z,100390.09
2022-08-08T04:41:17.773Z,100395.47
2022-08-08T04:44:21.646Z,100390.16
2022-08-08T04:47:29.291Z,100390.09
2022-08-08T04:50:38.744Z,100403.47
2022-08-08T04:54:27.047Z,100407.06
2022-08-08T04:57:05.099Z,100398.12
2022-08-08T05:00:10.175Z,100405.22
2022-08-08T05:03:12.851Z,100400.78
2022-08-08T05:06:25.648Z,100411.44
2022-08-08T05:09:30.800Z,100418.47
2022-08-08T05:12:42.956Z,100411.34
2022-08-08T05:16:52.054Z,100414.03
2022-08-08T05:20:10.731Z,100407.88
2022-08-08T05:22:48.159Z,100399.06
2022-08-08T05:25:51.847Z,100407.09
2022-08-08T05:29:06.246Z,100399.97
2022-08-08T05:32:12.513Z,100413.28
2022-08-08T05:35:17.979Z,100413.25
2022-08-08T05:38:31.711Z,100415.84
2022-08-08T05:41:54.859Z,100415.91
2022-08-08T05:45:10.394Z,100416.84
2022-08-08T05:48:28.667Z,100418.59
2022-08-08T05:51:48.974Z,100416.78
2022-08-08T05:54:57.236Z,100412.34
2022-08-08T05:58:17.623Z,100412.41
2022-08-08T06:01:55.387Z,100409.72
2022-08-08T06:04:54.572Z,100413.25
2022-08-08T06:08:02.181Z,100417.72
2022-08-08T06:11:06.610Z,100416.78
2022-08-08T06:14:12.927Z,100418.47
2022-08-08T06:17:50.208Z,100413.22
2022-08-08T06:20:45.938Z,100404.22
2022-08-08T06:24:02.296Z,100403.25
2022-08-08T06:27:10.968Z,100409.31
2022-08-08T06:30:26.112Z,100436.91
2022-08-08T06:34:27.412Z,100436.31
2022-08-08T06:37:24.055Z,100417.56
2022-08-08T06:40:32.182Z,100427.37
2022-08-08T06:43:37.631Z,100413.22
2022-08-08T06:46:39.916Z,100424.81
2022-08-08T06:49:54.935Z,100423.91
2022-08-08T06:53:13.898Z,100430.13
2022-08-08T06:56:23.383Z,100438.13
2022-08-08T06:59:25.739Z,100433.69
2022-08-08T07:02:33.642Z,100432.81
2022-08-08T07:05:40.046Z,100429.25
2022-08-08T07:08:47.457Z,100430.16
2022-08-08T07:11:58.701Z,100434.56
2022-08-08T07:15:23.412Z,100432.81
2022-08-08T07:18:57.520Z,100435.47
2022-08-08T07:22:11.721Z,100429.25
2022-08-08T07:25:29.419Z,100427.47
2022-08-08T07:28:37.652Z,100425.66
2022-08-08T07:31:42.303Z,100432.72
2022-08-08T07:34:48.548Z,100427.25
2022-08-08T07:38:18.235Z,100428.75
2022-08-08T07:41:25.462Z,100442.00
2022-08-08T07:44:37.382Z,100440.00
2022-08-08T07:47:49.008Z,100446.19
2022-08-08T07:50:58.707Z,100441.91
2022-08-08T07:54:29.247Z,100438.19
2022-08-08T07:57:48.152Z,100446.38
2022-08-08T08:00:53.394Z,100455.09
2022-08-08T08:04:03.867Z,100462.31
2022-08-08T08:07:08.735Z,100462.84
2022-08-08T08:10:15.310Z,100462.41
2022-08-08T08:14:06.027Z,100457.37
2022-08-08T08:16:48.906Z,100451.66
2022-08-08T08:19:58.290Z,100452.12
2022-08-08T08:23:01.889Z,100445.78
2022-08-08T08:26:05.344Z,100448.53
2022-08-08T08:29:08.758Z,100443.53
2022-08-08T08:32:31.962Z,100448.69
2022-08-08T08:36:17.790Z,100457.28
2022-08-08T08:39:02.351Z,100454.88
2022-08-08T08:42:12.070Z,100453.59
2022-08-08T08:45:22.630Z,100462.59
2022-08-08T08:48:26.631Z,100467.25
2022-08-08T08:51:37.851Z,100478.81
2022-08-08T08:54:59.821Z,100468.41
2022-08-08T08:58:07.663Z,100465.41
2022-08-08T09:01:13.154Z,100472.66
2022-08-08T09:04:31.147Z,100469.28
2022-08-08T09:07:39.460Z,100470.81
2022-08-08T09:10:55.276Z,100474.94
2022-08-08T09:14:02.908Z,100471.09
2022-08-08T09:17:12.843Z,100473.19
2022-08-08T09:22:01.963Z,100476.78
2022-08-08T09:23:40.881Z,100481.47
2022-08-08T09:26:57.626Z,100484.41
2022-08-08T09:30:10.579Z,100480.34
2022-08-08T09:34:06.269Z,100488.53
2022-08-08T09:36:51.719Z,100497.56
2022-08-08T09:40:11.265Z,100485.84
2022-08-08T09:43:41.203Z,100485.91
2022-08-08T09:46:57.321Z,100482.38
2022-08-08T09:50:13.935Z,100481.53
2022-08-08T09:53:32.909Z,100468.13
2022-08-08T09:56:45.358Z,100475.13
2022-08-08T10:00:14.659Z,100472.41
2022-08-08T10:03:20.106Z,100460.81
2022-08-08T10:06:29.251Z,100459.78
2022-08-08T10:09:35.898Z,100456.25
2022-08-08T10:13:00.302Z,100458.03
2022-08-08T10:16:16.584Z,100464.31
2022-08-08T10:19:20.485Z,100472.19
2022-08-08T10:22:27.416Z,100467.69
2022-08-08T10:25:35.960Z,100471.44
2022-08-08T10:29:12.855Z,100474.91
2022-08-08T10:32:36.058Z,100474.63
2022-08-08T10:36:20.381Z,100471.28
2022-08-08T10:39:07.136Z,100459.75
2022-08-08T10:42:15.324Z,100454.44
2022-08-08T10:45:18.879Z,100448.72
2022-08-08T10:48:57.072Z,100436.28
2022-08-08T10:51:59.853Z,100436.19
2022-08-08T10:55:41.038Z,100443.59
2022-08-08T10:58:40.002Z,100450.75
2022-08-08T11:01:57.236Z,100452.50
2022-08-08T11:05:05.301Z,100461.50
2022-08-08T11:08:37.870Z,100450.84
2022-08-08T11:12:05.355Z,100448.91
2022-08-08T11:15:08.670Z,100446.87
2022-08-08T11:18:11.360Z,100440.19
2022-08-08T11:21:19.693Z,100451.47
2022-08-08T11:24:25.660Z,100440.56
2022-08-08T11:27:37.188Z,100447.09
2022-08-08T11:30:50.453Z,100441.59
2022-08-08T11:34:23.373Z,100441.59
2022-08-08T11:37:19.643Z,100444.06
2022-08-08T11:40:42.118Z,100439.97
2022-08-08T11:43:45.103Z,100449.19
2022-08-08T11:46:57.744Z,100443.91
2022-08-08T11:50:10.077Z,100435.88
2022-08-08T11:53:14.404Z,100444.97
2022-08-08T11:56:23.815Z,100443.22
2022-08-08T11:59:58.710Z,100448.03
2022-08-08T12:02:57.220Z,100448.81
2022-08-08T12:06:11.252Z,100448.75
2022-08-08T12:09:16.891Z,100450.37
2022-08-08T12:12:29.032Z,100446.69
2022-08-08T12:15:42.160Z,100452.97
2022-08-08T12:18:51.582Z,100457.03
2022-08-08T12:22:09.422Z,100459.28
2022-08-08T12:25:29.645Z,100453.78
2022-08-08T12:28:32.379Z,100443.53
2022-08-08T12:31:39.380Z,100458.25
2022-08-08T12:35:04.467Z,100466.72
2022-08-08T12:38:08.980Z,100450.53
2022-08-08T12:41:33.406Z,100455.25
2022-08-08T12:44:37.094Z,100454.78
2022-08-08T12:48:04.588Z,100454.84
2022-08-08T12:51:04.122Z,100447.66
2022-08-08T12:54:24.171Z,100456.47
2022-08-08T12:57:28.793Z,100459.84
2022-08-08T13:00:39.226Z,100467.47
2022-08-08T13:03:51.964Z,100474.47
2022-08-08T13:07:00.667Z,100471.41
2022-08-08T13:10:10.799Z,100474.09
2022-08-08T13:13:27.118Z,100477.94
2022-08-08T13:16:33.652Z,100479.72
2022-08-08T13:19:41.267Z,100478.97
2022-08-08T13:23:08.071Z,100479.91
2022-08-08T13:26:15.480Z,100481.56
2022-08-08T13:29:18.002Z,100473.50
2022-08-08T13:32:25.462Z,100477.09
2022-08-08T13:35:29.635Z,100480.72
2022-08-08T13:38:41.000Z,100478.91
2022-08-08T13:41:51.450Z,100481.53
2022-08-08T13:44:59.857Z,100476.19
2022-08-08T13:48:04.181Z,100476.03
2022-08-08T13:51:33.809Z,100477.97
2022-08-08T13:54:33.544Z,100463.72
2022-08-08T13:58:07.355Z,100473.50
2022-08-08T14:00:58.542Z,100470.75
2022-08-08T14:04:02.168Z,100455.56
2022-08-08T14:07:04.847Z,100457.28
2022-08-08T14:10:12.282Z,100468.78
2022-08-08T14:13:30.895Z,100470.91
2022-08-08T14:16:36.623Z,100467.44
2022-08-08T14:19:57.771Z,100464.75
2022-08-08T14:23:21.126Z,100466.50
2022-08-08T14:26:35.759Z,100470.09
2022-08-08T14:29:39.415Z,100468.34
2022-08-08T14:32:54.768Z,100459.44
2022-08-08T14:36:05.032Z,100457.66
2022-08-08T14:39:11.817Z,100460.34
2022-08-08T14:42:16.667Z,100453.19
2022-08-08T14:45:33.124Z,100445.19
2022-08-08T14:48:57.144Z,100445.06
2022-08-08T14:52:08.730Z,100456.69
2022-08-08T14:55:11.596Z,100438.81
2022-08-08T14:58:16.590Z,100449.47
2022-08-08T15:01:37.431Z,100457.53
2022-08-08T15:04:45.468Z,100459.38
2022-08-08T15:07:53.785Z,100463.81
2022-08-08T15:11:04.803Z,100462.09
2022-08-08T15:14:13.499Z,100455.00
2022-08-08T15:17:16.987Z,100457.66
2022-08-08T15:20:20.355Z,100455.00
2022-08-08T15:23:22.490Z,100457.69
2022-08-08T15:26:35.480Z,100455.91
2022-08-08T15:29:37.875Z,100460.34
2022-08-08T15:32:41.659Z,100463.91
2022-08-08T15:35:45.613Z,100469.22
2022-08-08T15:38:52.861Z,100470.09
2022-08-08T15:41:55.116Z,100466.56
2022-08-08T15:44:57.664Z,100460.31
2022-08-08T15:48:04.336Z,100469.97
2022-08-08T15:51:18.264Z,100470.87
2022-08-08T15:54:38.514Z,100469.12
2022-08-08T15:57:42.956Z,100462.09
2022-08-08T16:00:47.393Z,100456.75
2022-08-08T16:03:53.154Z,100450.53
2022-08-08T16:06:55.288Z,100462.09
2022-08-08T16:13:14.477Z,100470.87
2022-08-08T16:13:30.357Z,100468.19
2022-08-08T16:16:43.266Z,100458.34
2022-08-08T16:19:59.695Z,100457.37
2022-08-08T16:23:03.381Z,100450.09
2022-08-08T16:26:13.212Z,100447.53
2022-08-08T16:29:37.516Z,100453.69
2022-08-08T16:32:48.555Z,100449.25
2022-08-08T16:35:51.923Z,100456.28
2022-08-08T16:38:56.670Z,100453.53
2022-08-08T16:42:00.911Z,100452.66
2022-08-08T16:45:11.386Z,100450.94
2022-08-08T16:48:32.295Z,100449.22
2022-08-08T16:55:00.527Z,100446.56
2022-08-08T16:55:34.194Z,100458.13
2022-08-08T16:58:34.471Z,100464.37
2022-08-08T17:01:39.758Z,100471.28
2022-08-08T17:04:42.320Z,100464.16
2022-08-08T17:07:51.168Z,100468.47
2022-08-08T17:10:58.574Z,100476.34
2022-08-08T17:14:18.880Z,100469.09
2022-08-08T17:17:22.868Z,100471.81
2022-08-08T17:20:44.143Z,100471.03
2022-08-08T17:24:00.698Z,100475.34
2022-08-08T17:27:05.310Z,100479.66
2022-08-08T17:30:14.880Z,100478.81
2022-08-08T17:34:35.138Z,100490.31
2022-08-08T17:37:01.047Z,100488.50
2022-08-08T17:40:15.084Z,100491.16
2022-08-08T17:43:17.763Z,100491.09
2022-08-08T17:46:42.080Z,100489.25
2022-08-08T17:49:45.160Z,100501.69
2022-08-08T17:52:53.682Z,100493.59
2022-08-08T17:56:06.728Z,100488.22
2022-08-08T17:59:10.394Z,100491.81
2022-08-08T18:02:18.951Z,100492.59
2022-08-08T18:05:23.867Z,100489.56
2022-08-08T18:08:41.409Z,100490.88
2022-08-08T18:11:51.019Z,100490.47
2022-08-08T18:14:53.668Z,100502.25
2022-08-08T18:18:09.482Z,100501.84
2022-08-08T18:21:34.578Z,100505.03
2022-08-08T18:24:41.363Z,100507.69
2022-08-08T18:27:50.637Z,100521.03
2022-08-08T18:30:53.022Z,100515.63
2022-08-08T18:34:11.291Z,100521.66
2022-08-08T18:37:34.137Z,100521.66
2022-08-08T18:40:39.723Z,100524.87
2022-08-08T18:43:44.046Z,100529.13
2022-08-08T18:46:55.988Z,100526.25
2022-08-08T18:50:02.514Z,100529.81
2022-08-08T18:53:05.914Z,100532.47
2022-08-08T18:56:23.146Z,100535.94
2022-08-08T18:59:28.969Z,100540.41
2022-08-08T19:02:37.107Z,100533.44
2022-08-08T19:05:51.677Z,100532.56
2022-08-08T19:08:54.292Z,100530.84
2022-08-08T19:11:56.440Z,100539.94
2022-08-08T19:14:59.121Z,100537.41
2022-08-08T19:18:33.416Z,100538.47
2022-08-08T19:21:30.927Z,100535.19
2022-08-08T19:24:45.871Z,100543.09
2022-08-08T19:27:59.983Z,100556.44
2022-08-08T19:31:08.913Z,100555.00
2022-08-08T19:34:35.743Z,100555.81
2022-08-08T19:37:42.160Z,100553.91
2022-08-08T19:40:46.472Z,100553.31
2022-08-08T19:44:02.262Z,100548.34
2022-08-08T19:47:06.470Z,100547.41
2022-08-08T19:50:14.930Z,100546.56
2022-08-08T19:53:47.074Z,100538.69
2022-08-08T19:56:41.419Z,100543.13
2022-08-08T19:59:50.858Z,100550.06
2022-08-08T20:02:53.636Z,100553.62
2022-08-08T20:06:15.136Z,100551.97
2022-08-08T20:09:23.040Z,100543.47
2022-08-08T20:12:32.105Z,100536.56
2022-08-08T20:15:52.603Z,100531.38
2022-08-08T20:18:59.619Z,100530.53
2022-08-08T20:22:12.823Z,100525.34
2022-08-08T20:25:17.385Z,100527.06
2022-08-08T20:28:25.370Z,100529.75
2022-08-08T20:32:07.390Z,100528.87
2022-08-08T20:35:01.503Z,100522.78
2022-08-08T20:38:04.427Z,100517.63
2022-08-08T20:41:17.334Z,100530.72
2022-08-08T20:44:21.660Z,100536.13
2022-08-08T20:47:36.096Z,100535.28
2022-08-08T20:50:41.518Z,100545.78
2022-08-08T20:53:59.887Z,100540.47
2022-08-08T20:57:18.909Z,100536.94
2022-08-08T21:00:23.566Z,100532.59
2022-08-08T21:03:26.186Z,100537.16
2022-08-08T21:06:53.009Z,100524.94
2022-08-08T21:10:08.044Z,100529.38
2022-08-08T21:13:15.055Z,100533.94
2022-08-08T21:16:28.674Z,100535.00
2022-08-08T21:19:44.490Z,100543.03
2022-08-08T21:22:49.975Z,100544.03
2022-08-08T21:25:53.440Z,100543.28
2022-08-08T21:29:01.067Z,100552.00
2022-08-08T21:32:07.634Z,100548.34
2022-08-08T21:36:17.151Z,100552.84
2022-08-08T21:38:38.982Z,100562.75
2022-08-08T21:41:51.183Z,100567.88
2022-08-08T21:44:58.142Z,100573.19
2022-08-08T21:48:12.978Z,100572.66
2022-08-08T21:54:18.084Z,100571.06
2022-08-08T21:55:03.200Z,100576.31
2022-08-08T21:58:09.517Z,100578.94
2022-08-08T22:01:22.455Z,100587.72
2022-08-08T22:04:38.218Z,100598.31
2022-08-08T22:07:41.470Z,100596.59
2022-08-08T22:10:45.116Z,100595.44
2022-08-08T22:13:51.597Z,100590.97
2022-08-08T22:16:54.535Z,100600.38
2022-08-08T22:20:10.824Z,100589.75
2022-08-08T22:23:17.708Z,100598.56
2022-08-08T22:26:30.906Z,100594.59
2022-08-08T22:29:58.759Z,100575.69
2022-08-08T22:32:56.033Z,100577.44
2022-08-08T22:36:05.338Z,100578.22
2022-08-08T22:39:19.203Z,100577.25
2022-08-08T22:42:27.408Z,100581.50
2022-08-08T22:45:34.710Z,100585.81
2022-08-08T22:48:37.748Z,100583.16
2022-08-08T22:51:42.874Z,100587.62
2022-08-08T22:54:56.087Z,100589.34
2022-08-08T22:58:06.913Z,100587.62
2022-08-08T23:01:16.775Z,100588.59
2022-08-08T23:04:34.547Z,100582.69
2022-08-08T23:07:51.464Z,100588.81
2022-08-08T23:11:06.421Z,100582.50
2022-08-08T23:14:20.439Z,100583.16
2022-08-08T23:17:24.554Z,100581.16
2022-08-08T23:20:32.524Z,100581.34
2022-08-08T23:23:48.920Z,100588.41
2022-08-08T23:26:57.043Z,100583.94
2022-08-08T23:29:59.302Z,100576.94
2022-08-08T23:33:01.703Z,100575.22
2022-08-08T23:36:08.582Z,100578.84
2022-08-08T23:39:11.453Z,100587.28
2022-08-08T23:42:13.687Z,100585.47
2022-08-08T23:45:18.790Z,100591.53
2022-08-08T23:49:07.547Z,100599.31
2022-08-08T23:52:07.811Z,100606.13
2022-08-08T23:55:14.454Z,100608.62
2022-08-08T23:58:37.447Z,100608.06
